F/V Berriz Patxiku — ECES — position and weather

sailwx.info

Track history (hours):
 
Tides and Currents Weather Stations Pressure Air Temp Water Temp Dewpoint Dewpoint Depression Visibility Wind Speed Wind Dir Waves Ship Positions

F/V Berriz Patxiku

Last reported at 2017-Sep-24 23:50 UTC. Time now 2017-Dec-11 11:38 UTC.
Position N 43°20' W 001°58'.
Warning: this ship's position is months out of date.

Length 30 m.

Type: Fishing. MMSI: 224106260.

Date/timePositionNaut miles runAvg speedWind from/ knotsBaromVisibWave heightAir tempDewpointWater temp
2017-Sep-24 23:50N 43°20' W 001°58'0 0.3
2017-Sep-24 23:25N 43°20' W 001°58'0 0.9
2017-Sep-24 22:52N 43°20' W 001°58'0 0.8
2017-Sep-24 22:19N 43°21' W 001°59'0 0.6
2017-Sep-24 21:58N 43°21' W 001°59'0 0.6
2017-Sep-24 21:30N 43°21' W 001°59'0 0.4
2017-Sep-24 20:46N 43°21' W 001°59'0 0.3
2017-Sep-24 20:30N 43°21' W 001°59'0 0.2
2017-Sep-24 20:00N 43°21' W 001°59'0 0.2
2017-Sep-24 19:30N 43°21' W 001°59'3 4.1
2017-Sep-24 18:53N 43°20' W 002°03'3 9.0
2017-Sep-24 18:30N 43°19' W 002°07'  
2017-Sep-21 19:35N 43°39' W 001°46'1 9.4
2017-Sep-21 19:29N 43°39' W 001°47'26 2.0
2017-Sep-21 06:40N 43°19' W 002°10'3 9.4
2017-Sep-21 06:18N 43°20' W 002°06'4 6.9
2017-Sep-21 05:47N 43°21' W 002°01'3 9.2
2017-Sep-21 05:27N 43°21' W 002°05'5 9.3
2017-Sep-21 04:57N 43°21' W 002°12'1 1.5
2017-Sep-21 04:03N 43°20' W 002°13'0 0.2
2017-Sep-21 03:55N 43°20' W 002°13'0 0.2
2017-Sep-21 03:24N 43°20' W 002°13'2 4.0
2017-Sep-21 02:52N 43°19' W 002°10'3 0.8
2017-Sep-20 23:39N 43°21' W 002°07'0 0.2
2017-Sep-20 23:18N 43°21' W 002°07'0 0.1
2017-Sep-20 22:49N 43°21' W 002°07'0 0.1
2017-Sep-20 22:29N 43°21' W 002°07'0 0.1
2017-Sep-20 22:00N 43°21' W 002°07'0 0.2
2017-Sep-20 21:22N 43°21' W 002°07'0 0.3
2017-Sep-20 20:58N 43°21' W 002°07'0 0.4
2017-Sep-20 20:30N 43°21' W 002°07'0 0.4
2017-Sep-20 19:56N 43°20' W 002°07'0 0.1
2017-Sep-20 19:31N 43°20' W 002°07'5 0.4
2017-Sep-20 07:36N 43°21' W 002°00'110.5
2017-Sep-20 07:29N 43°21' W 001°59'0 1.0
2017-Sep-20 07:01N 43°21' W 001°59'7 7.1
2017-Sep-20 06:03N 43°21' W 002°08'0 0.4
2017-Sep-20 05:37N 43°21' W 002°09'1 0.6
2017-Sep-20 04:08N 43°21' W 002°07'2 0.4
2017-Sep-19 23:41N 43°20' W 002°05'0 0.0
2017-Sep-19 23:14N 43°20' W 002°05'0 0.2
2017-Sep-19 23:01N 43°20' W 002°05'5 0.9
2017-Sep-19 18:06N 43°21' W 001°59'1 6.7
2017-Sep-19 18:00N 43°21' W 001°60'  
Track history (hours):
 
Tides and Currents Weather Stations Pressure Air Temp Water Temp Dewpoint Dewpoint Depression Visibility Wind Speed Wind Dir Waves Ship Positions

F/V Berriz Patxiku

Last reported at 2017-Sep-24 23:50 UTC. Time now 2017-Dec-11 11:38 UTC.
Position N 43°20' W 001°58'.
Warning: this ship's position is months out of date.

Length 30 m.

Type: Fishing. MMSI: 224106260.

Date/timePositionNaut miles runAvg speedWind from/ knotsBaromVisibWave heightAir tempDewpointWater temp
2017-Sep-24 23:50N 43°20' W 001°58'0 0.3
2017-Sep-24 23:25N 43°20' W 001°58'0 0.9
2017-Sep-24 22:52N 43°20' W 001°58'0 0.8
2017-Sep-24 22:19N 43°21' W 001°59'0 0.6
2017-Sep-24 21:58N 43°21' W 001°59'0 0.6
2017-Sep-24 21:30N 43°21' W 001°59'0 0.4
2017-Sep-24 20:46N 43°21' W 001°59'0 0.3
2017-Sep-24 20:30N 43°21' W 001°59'0 0.2
2017-Sep-24 20:00N 43°21' W 001°59'0 0.2
2017-Sep-24 19:30N 43°21' W 001°59'3 4.1
2017-Sep-24 18:53N 43°20' W 002°03'3 9.0
2017-Sep-24 18:30N 43°19' W 002°07'  
2017-Sep-21 19:35N 43°39' W 001°46'1 9.4
2017-Sep-21 19:29N 43°39' W 001°47'26 2.0
2017-Sep-21 06:40N 43°19' W 002°10'3 9.4
2017-Sep-21 06:18N 43°20' W 002°06'4 6.9
2017-Sep-21 05:47N 43°21' W 002°01'3 9.2
2017-Sep-21 05:27N 43°21' W 002°05'5 9.3
2017-Sep-21 04:57N 43°21' W 002°12'1 1.5
2017-Sep-21 04:03N 43°20' W 002°13'0 0.2
2017-Sep-21 03:55N 43°20' W 002°13'0 0.2
2017-Sep-21 03:24N 43°20' W 002°13'2 4.0
2017-Sep-21 02:52N 43°19' W 002°10'3 0.8
2017-Sep-20 23:39N 43°21' W 002°07'0 0.2
2017-Sep-20 23:18N 43°21' W 002°07'0 0.1
2017-Sep-20 22:49N 43°21' W 002°07'0 0.1
2017-Sep-20 22:29N 43°21' W 002°07'0 0.1
2017-Sep-20 22:00N 43°21' W 002°07'0 0.2
2017-Sep-20 21:22N 43°21' W 002°07'0 0.3
2017-Sep-20 20:58N 43°21' W 002°07'0 0.4
2017-Sep-20 20:30N 43°21' W 002°07'0 0.4
2017-Sep-20 19:56N 43°20' W 002°07'0 0.1
2017-Sep-20 19:31N 43°20' W 002°07'5 0.4
2017-Sep-20 07:36N 43°21' W 002°00'110.5
2017-Sep-20 07:29N 43°21' W 001°59'0 1.0
2017-Sep-20 07:01N 43°21' W 001°59'7 7.1
2017-Sep-20 06:03N 43°21' W 002°08'0 0.4
2017-Sep-20 05:37N 43°21' W 002°09'1 0.6
2017-Sep-20 04:08N 43°21' W 002°07'2 0.4
2017-Sep-19 23:41N 43°20' W 002°05'0 0.0
2017-Sep-19 23:14N 43°20' W 002°05'0 0.2
2017-Sep-19 23:01N 43°20' W 002°05'5 0.9
2017-Sep-19 18:06N 43°21' W 001°59'1 6.7
2017-Sep-19 18:00N 43°21' W 001°60'  

Dump ship's entire track history